createdAt,value
2022-10-31T00:00:23.301Z,95938.69
2022-10-31T00:03:25.788Z,95935.59
2022-10-31T00:06:28.416Z,95940.50
2022-10-31T00:09:30.344Z,95938.53
2022-10-31T00:12:32.377Z,95943.44
2022-10-31T00:15:35.902Z,95938.94
2022-10-31T00:18:37.887Z,95936.53
2022-10-31T00:21:39.907Z,95932.03
2022-10-31T00:24:41.782Z,95937.97
2022-10-31T00:27:43.710Z,95930.53
2022-10-31T00:30:47.185Z,95931.75
2022-10-31T00:33:49.190Z,95932.66
2022-10-31T00:36:51.145Z,95928.88
2022-10-31T00:39:53.706Z,95935.16
2022-10-31T00:42:55.670Z,95933.56
2022-10-31T00:45:59.643Z,95934.28
2022-10-31T00:49:01.715Z,95934.03
2022-10-31T00:52:03.748Z,95935.63
2022-10-31T00:55:05.998Z,95937.91
2022-10-31T00:58:08.047Z,95938.72
2022-10-31T01:01:11.508Z,95933.28
2022-10-31T01:04:13.470Z,95933.00
2022-10-31T01:07:15.467Z,95936.94
2022-10-31T01:10:17.825Z,95938.16
2022-10-31T01:13:19.750Z,95936.28
2022-10-31T01:16:25.101Z,95942.13
2022-10-31T01:19:27.084Z,95937.97
2022-10-31T01:22:29.362Z,95936.13
2022-10-31T01:25:31.259Z,95937.81
2022-10-31T01:28:33.779Z,95941.78
2022-10-31T01:31:40.175Z,95947.38
2022-10-31T01:34:42.256Z,95939.00
2022-10-31T01:37:44.239Z,95942.06
2022-10-31T01:40:46.177Z,95940.22
2022-10-31T01:43:51.449Z,95940.28
2022-10-31T01:46:57.929Z,95935.25
2022-10-31T01:50:03.825Z,95933.59
2022-10-31T01:53:08.657Z,95932.50
2022-10-31T01:56:11.184Z,95935.56
2022-10-31T01:59:17.352Z,95933.22
2022-10-31T02:02:21.103Z,95928.09
2022-10-31T02:05:26.780Z,95926.84
2022-10-31T02:08:30.292Z,95925.03
2022-10-31T02:11:33.636Z,95925.63
2022-10-31T02:14:37.377Z,95916.38
2022-10-31T02:17:40.859Z,95919.56
2022-10-31T02:20:51.358Z,95925.81
2022-10-31T02:24:18.420Z,95928.19
2022-10-31T02:27:42.303Z,95922.09
2022-10-31T02:31:01.470Z,95932.09
2022-10-31T02:34:14.074Z,95928.19
2022-10-31T02:37:22.102Z,95929.03
2022-10-31T02:40:28.271Z,95933.97
2022-10-31T02:43:37.363Z,95926.69
2022-10-31T02:46:49.011Z,95926.63
2022-10-31T02:49:58.320Z,95930.66
2022-10-31T02:53:00.012Z,95927.25
2022-10-31T02:56:07.498Z,95929.63
2022-10-31T02:59:09.456Z,95927.31
2022-10-31T03:02:33.869Z,95935.84
2022-10-31T03:05:49.011Z,95936.97
2022-10-31T03:08:59.715Z,95929.53
2022-10-31T03:12:07.979Z,95937.13
2022-10-31T03:15:15.320Z,95928.63
2022-10-31T03:18:26.757Z,95934.38
2022-10-31T03:21:34.954Z,95938.59
2022-10-31T03:24:40.174Z,95934.41
2022-10-31T03:27:43.421Z,95938.63
2022-10-31T03:30:46.987Z,95939.13
2022-10-31T03:33:52.223Z,95937.03
2022-10-31T03:36:57.902Z,95940.19
2022-10-31T03:40:02.060Z,95939.06
2022-10-31T03:43:08.895Z,95939.81
2022-10-31T03:46:11.472Z,95936.78
2022-10-31T03:49:16.312Z,95936.19
2022-10-31T03:52:25.562Z,95937.25
2022-10-31T03:55:31.659Z,95933.31
2022-10-31T03:58:37.997Z,95936.28
2022-10-31T04:01:44.272Z,95932.94
2022-10-31T04:04:50.204Z,95937.03
2022-10-31T04:07:56.003Z,95936.66
2022-10-31T04:11:00.317Z,95931.09
2022-10-31T04:14:05.789Z,95935.72
2022-10-31T04:17:12.497Z,95940.72
2022-10-31T04:20:18.550Z,95944.13
2022-10-31T04:23:23.473Z,95936.06
2022-10-31T04:26:25.892Z,95946.28
2022-10-31T04:29:27.837Z,95941.53
2022-10-31T04:32:29.851Z,95944.63
2022-10-31T04:35:33.289Z,95951.97
2022-10-31T04:38:35.283Z,95950.19
2022-10-31T04:41:37.213Z,95948.25
2022-10-31T04:44:39.157Z,95940.38
2022-10-31T04:47:41.314Z,95938.72
2022-10-31T04:50:44.764Z,95939.53
2022-10-31T04:53:46.752Z,95942.66
2022-10-31T04:56:48.696Z,95938.66
2022-10-31T04:59:50.613Z,95939.75
2022-10-31T05:02:54.366Z,95944.41
2022-10-31T05:05:57.658Z,95947.53
2022-10-31T05:08:59.656Z,95945.56
2022-10-31T05:12:01.580Z,95943.06
2022-10-31T05:15:03.850Z,95940.44
2022-10-31T05:18:05.952Z,95941.47
2022-10-31T05:21:09.329Z,95936.06
2022-10-31T05:24:11.379Z,95943.81
2022-10-31T05:27:13.384Z,95937.06
2022-10-31T05:30:18.074Z,95937.94
2022-10-31T05:33:19.998Z,95931.13
2022-10-31T05:36:23.392Z,95936.44
2022-10-31T05:39:25.732Z,95933.63
2022-10-31T05:42:27.685Z,95931.38
2022-10-31T05:45:29.656Z,95934.25
2022-10-31T05:48:31.621Z,95943.91
2022-10-31T05:51:36.094Z,95940.44
2022-10-31T05:54:38.114Z,95940.31
2022-10-31T05:57:40.226Z,95948.13
2022-10-31T06:00:42.259Z,95948.13
2022-10-31T06:03:44.192Z,95947.09
2022-10-31T06:06:47.980Z,95951.94
2022-10-31T06:09:49.993Z,95953.91
2022-10-31T06:12:51.884Z,95953.06
2022-10-31T06:15:54.048Z,95956.09
2022-10-31T06:18:55.991Z,95952.53
2022-10-31T06:21:59.569Z,95950.47
2022-10-31T06:25:01.504Z,95958.13
2022-10-31T06:28:03.464Z,95961.75
2022-10-31T06:31:05.766Z,95968.06
2022-10-31T06:34:07.955Z,95965.31
2022-10-31T06:37:13.090Z,95970.09
2022-10-31T06:40:15.012Z,95968.06
2022-10-31T06:43:16.938Z,95972.03
2022-10-31T06:46:18.991Z,95969.41
2022-10-31T06:49:21.012Z,95972.97
2022-10-31T06:52:24.372Z,95976.53
2022-10-31T06:55:27.538Z,95971.22
2022-10-31T06:58:29.472Z,95974.03
2022-10-31T07:01:31.590Z,95973.75
2022-10-31T07:04:33.969Z,95979.22
2022-10-31T07:07:37.391Z,95973.50
2022-10-31T07:10:41.031Z,95975.88
2022-10-31T07:13:43.144Z,95987.13
2022-10-31T07:16:45.082Z,95985.28
2022-10-31T07:19:47.012Z,95987.63
2022-10-31T07:22:50.799Z,95979.88
2022-10-31T07:25:56.355Z,95979.13
2022-10-31T07:28:58.377Z,95980.34
2022-10-31T07:32:00.291Z,95975.47
2022-10-31T07:35:02.274Z,95971.69
2022-10-31T07:38:13.098Z,95982.63
2022-10-31T07:41:15.061Z,95989.66
2022-10-31T07:44:16.999Z,95984.31
2022-10-31T07:47:18.914Z,95983.56
2022-10-31T07:50:22.883Z,95986.31
2022-10-31T07:53:26.146Z,95978.25
2022-10-31T07:56:28.168Z,95979.50
2022-10-31T07:59:30.237Z,95977.19
2022-10-31T08:02:32.178Z,95978.03
2022-10-31T08:05:34.704Z,95969.22
2022-10-31T08:08:38.511Z,95970.41
2022-10-31T08:11:40.575Z,95973.53
2022-10-31T08:14:42.589Z,95977.06
2022-10-31T08:17:44.595Z,95971.69
2022-10-31T08:20:46.547Z,95969.41
2022-10-31T08:23:49.857Z,95969.81
2022-10-31T08:26:52.982Z,95965.22
2022-10-31T08:29:54.904Z,95967.53
2022-10-31T08:33:01.719Z,95960.25
2022-10-31T08:36:03.700Z,95960.66
2022-10-31T08:39:07.052Z,95958.00
2022-10-31T08:42:08.995Z,95948.38
2022-10-31T08:45:11.154Z,95946.44
2022-10-31T08:48:15.662Z,95946.50
2022-10-31T08:51:17.630Z,95948.06
2022-10-31T08:54:20.934Z,95935.31
2022-10-31T08:57:22.926Z,95928.34
2022-10-31T09:00:25.251Z,95938.03
2022-10-31T09:03:28.792Z,95932.22
2022-10-31T09:06:30.779Z,95938.41
2022-10-31T09:09:34.346Z,95930.28
2022-10-31T09:12:36.293Z,95930.28
2022-10-31T09:15:41.237Z,95924.88
2022-10-31T09:18:43.410Z,95929.53
2022-10-31T09:21:45.316Z,95928.34
2022-10-31T09:24:48.627Z,95916.31
2022-10-31T09:27:50.546Z,95923.66
2022-10-31T09:30:54.124Z,95916.66
2022-10-31T09:33:56.040Z,95919.34
2022-10-31T09:36:58.067Z,95912.00
2022-10-31T09:40:01.766Z,95907.25
2022-10-31T09:43:16.453Z,95910.34
2022-10-31T09:46:30.422Z,95911.47
2022-10-31T09:49:42.807Z,95900.16
2022-10-31T09:52:51.839Z,95906.28
2022-10-31T09:55:56.291Z,95897.66
2022-10-31T09:59:00.910Z,95902.72
2022-10-31T10:02:06.563Z,95902.72
2022-10-31T10:05:14.044Z,95901.66
2022-10-31T10:08:20.762Z,95900.72
2022-10-31T10:11:47.001Z,95902.50
2022-10-31T10:15:00.373Z,95887.22
2022-10-31T10:18:10.192Z,95895.97
2022-10-31T10:21:25.957Z,95892.13
2022-10-31T10:24:44.893Z,95894.94
2022-10-31T10:27:58.402Z,95885.38
2022-10-31T10:31:04.761Z,95888.47
2022-10-31T10:34:18.032Z,95884.16
2022-10-31T10:37:27.592Z,95878.59
2022-10-31T10:40:30.480Z,95870.75
2022-10-31T10:43:35.515Z,95866.41
2022-10-31T10:46:42.604Z,95865.59
2022-10-31T10:49:50.842Z,95870.75
2022-10-31T10:53:02.131Z,95870.34
2022-10-31T10:56:15.412Z,95862.66
2022-10-31T10:59:21.852Z,95861.00
2022-10-31T11:02:26.048Z,95854.75
2022-10-31T11:05:35.332Z,95851.50
2022-10-31T11:08:37.877Z,95845.75
2022-10-31T11:11:40.210Z,95848.59
2022-10-31T11:14:48.448Z,95846.03
2022-10-31T11:17:52.459Z,95839.53
2022-10-31T11:20:56.541Z,95827.59
2022-10-31T11:24:04.272Z,95821.59
2022-10-31T11:27:14.892Z,95824.13
2022-10-31T11:30:18.322Z,95827.63
2022-10-31T11:33:25.434Z,95819.00
2022-10-31T11:36:31.779Z,95821.09
2022-10-31T11:39:41.229Z,95819.78
2022-10-31T11:42:44.004Z,95811.56
2022-10-31T11:45:47.592Z,95811.09
2022-10-31T11:48:52.737Z,95808.97
2022-10-31T11:51:57.559Z,95801.25
2022-10-31T11:55:02.232Z,95788.56
2022-10-31T11:58:05.326Z,95785.63
2022-10-31T12:01:25.131Z,95788.38
2022-10-31T12:04:38.214Z,95776.25
2022-10-31T12:07:40.205Z,95773.88
2022-10-31T12:10:54.280Z,95765.44
2022-10-31T12:14:07.923Z,95769.78
2022-10-31T12:17:16.549Z,95764.41
2022-10-31T12:20:26.767Z,95760.91
2022-10-31T12:23:40.782Z,95756.56
2022-10-31T12:26:55.574Z,95761.94
2022-10-31T12:30:11.351Z,95758.31
2022-10-31T12:33:38.259Z,95756.41
2022-10-31T12:36:50.950Z,95747.44
2022-10-31T12:40:03.110Z,95750.09
2022-10-31T12:43:20.699Z,95742.50
2022-10-31T12:46:33.994Z,95736.25
2022-10-31T12:49:50.697Z,95737.28
2022-10-31T12:53:02.675Z,95731.75
2022-10-31T12:56:25.081Z,95728.84
2022-10-31T12:59:32.915Z,95721.66
2022-10-31T13:02:40.213Z,95719.78
2022-10-31T13:05:47.520Z,95717.84
2022-10-31T13:08:53.870Z,95717.03
2022-10-31T13:11:59.831Z,95713.41
2022-10-31T13:15:06.951Z,95723.66
2022-10-31T13:18:28.867Z,95715.44
2022-10-31T13:21:41.217Z,95706.47
2022-10-31T13:24:48.128Z,95711.03
2022-10-31T13:27:55.148Z,95705.28
2022-10-31T13:30:57.097Z,95699.75
2022-10-31T13:34:04.892Z,95699.81
2022-10-31T13:37:17.626Z,95695.19
2022-10-31T13:40:31.723Z,95694.50
2022-10-31T13:43:54.155Z,95694.28
2022-10-31T13:46:57.699Z,95686.63
2022-10-31T13:50:19.505Z,95683.56
2022-10-31T13:53:36.064Z,95691.44
2022-10-31T13:56:38.077Z,95685.09
2022-10-31T13:59:40.152Z,95685.97
2022-10-31T14:02:48.779Z,95686.13
2022-10-31T14:05:54.908Z,95685.47
2022-10-31T14:08:58.285Z,95677.44
2022-10-31T14:12:05.554Z,95676.72
2022-10-31T14:15:17.035Z,95675.38
2022-10-31T14:18:29.884Z,95677.41
2022-10-31T14:21:38.573Z,95682.19
2022-10-31T14:24:42.025Z,95669.56
2022-10-31T14:27:48.077Z,95670.06
2022-10-31T14:30:54.324Z,95676.88
2022-10-31T14:33:56.356Z,95676.63
2022-10-31T14:37:31.352Z,95669.00
2022-10-31T14:40:43.485Z,95666.09
2022-10-31T14:44:11.206Z,95672.06
2022-10-31T14:47:23.029Z,95662.13
2022-10-31T14:50:35.463Z,95664.19
2022-10-31T14:53:46.424Z,95667.13
2022-10-31T14:56:53.457Z,95663.72
2022-10-31T15:00:03.656Z,95663.75
2022-10-31T15:03:13.361Z,95653.66
2022-10-31T15:06:17.743Z,95649.47
2022-10-31T15:09:24.166Z,95648.84
2022-10-31T15:12:30.135Z,95647.72
2022-10-31T15:15:33.951Z,95644.88
2022-10-31T15:18:36.021Z,95640.75
2022-10-31T15:21:43.105Z,95638.09
2022-10-31T15:24:45.923Z,95644.38
2022-10-31T15:27:50.803Z,95641.28
2022-10-31T15:30:54.656Z,95631.16
2022-10-31T15:34:01.375Z,95623.44
2022-10-31T15:37:03.441Z,95639.81
2022-10-31T15:40:12.972Z,95629.03
2022-10-31T15:43:17.504Z,95629.88
2022-10-31T15:46:19.497Z,95633.56
2022-10-31T15:49:30.048Z,95623.91
2022-10-31T15:52:35.373Z,95622.94
2022-10-31T15:55:46.406Z,95625.28
2022-10-31T15:58:52.563Z,95621.91
2022-10-31T16:02:02.889Z,95622.84
2022-10-31T16:05:18.113Z,95623.38
2022-10-31T16:08:25.688Z,95621.91
2022-10-31T16:11:35.845Z,95620.00
2022-10-31T16:14:41.007Z,95620.94
2022-10-31T16:17:46.150Z,95619.00
2022-10-31T16:20:51.184Z,95618.22
2022-10-31T16:23:58.318Z,95619.09
2022-10-31T16:27:04.602Z,95622.81
2022-10-31T16:30:36.840Z,95614.00
2022-10-31T16:33:38.944Z,95621.00
2022-10-31T16:36:40.964Z,95623.16
2022-10-31T16:39:42.917Z,95617.72
2022-10-31T16:42:46.260Z,95620.88
2022-10-31T16:45:52.280Z,95613.88
2022-10-31T16:48:55.060Z,95616.25
2022-10-31T16:51:57.219Z,95615.91
2022-10-31T16:54:59.817Z,95619.00
2022-10-31T16:58:03.063Z,95612.06
2022-10-31T17:01:08.787Z,95616.41
2022-10-31T17:04:14.438Z,95626.16
2022-10-31T17:07:16.749Z,95618.00
2022-10-31T17:10:18.848Z,95621.88
2022-10-31T17:13:24.310Z,95626.22
2022-10-31T17:16:27.732Z,95620.88
2022-10-31T17:19:29.846Z,95622.94
2022-10-31T17:22:32.323Z,95618.69
2022-10-31T17:25:34.347Z,95619.88
2022-10-31T17:28:36.529Z,95619.09
2022-10-31T17:31:40.256Z,95614.47
2022-10-31T17:34:42.808Z,95614.06
2022-10-31T17:37:46.243Z,95617.22
2022-10-31T17:43:56.019Z,95617.31
2022-10-31T17:46:59.639Z,95609.19
2022-10-31T17:50:02.297Z,95608.44
2022-10-31T17:53:04.610Z,95608.06
2022-10-31T17:56:09.275Z,95608.50
2022-10-31T17:59:11.532Z,95612.44
2022-10-31T18:02:17.372Z,95608.91
2022-10-31T18:05:19.473Z,95610.19
2022-10-31T18:08:25.490Z,95601.66
2022-10-31T18:11:27.795Z,95610.59
2022-10-31T18:14:29.803Z,95601.69
2022-10-31T18:17:35.880Z,95608.31
2022-10-31T18:20:40.142Z,95612.59
2022-10-31T18:23:43.381Z,95606.38
2022-10-31T18:26:45.667Z,95598.28
2022-10-31T18:29:47.957Z,95600.22
2022-10-31T18:32:52.243Z,95597.13
2022-10-31T18:35:54.876Z,95602.56
2022-10-31T18:38:57.217Z,95597.94
2022-10-31T18:41:59.556Z,95601.88
2022-10-31T18:45:11.400Z,95601.13
2022-10-31T18:48:21.411Z,95594.13
2022-10-31T18:51:24.188Z,95594.16
2022-10-31T18:54:26.862Z,95588.78
2022-10-31T18:57:30.993Z,95590.34
2022-10-31T19:00:33.103Z,95590.34
2022-10-31T19:03:37.202Z,95583.38
2022-10-31T19:06:39.303Z,95577.19
2022-10-31T19:09:42.155Z,95574.91
2022-10-31T19:12:44.524Z,95576.06
2022-10-31T19:15:47.746Z,95574.16
2022-10-31T19:18:54.353Z,95574.56
2022-10-31T19:21:57.137Z,95571.47
2022-10-31T19:25:03.006Z,95575.06
2022-10-31T19:28:09.133Z,95575.06
2022-10-31T19:31:11.509Z,95570.78
2022-10-31T19:34:18.234Z,95573.91
2022-10-31T19:37:29.887Z,95561.91
2022-10-31T19:40:32.141Z,95568.19
2022-10-31T19:43:34.157Z,95564.28
2022-10-31T19:46:53.359Z,95572.44
2022-10-31T19:49:58.693Z,95565.88
2022-10-31T19:53:00.875Z,95570.59
2022-10-31T19:56:03.339Z,95569.81
2022-10-31T19:59:05.344Z,95562.84
2022-10-31T20:02:07.712Z,95566.75
2022-10-31T20:05:14.632Z,95571.81
2022-10-31T20:08:18.192Z,95568.31
2022-10-31T20:11:20.731Z,95569.13
2022-10-31T20:14:23.218Z,95565.25
2022-10-31T20:17:25.718Z,95573.84
2022-10-31T20:20:29.722Z,95570.00
2022-10-31T20:23:32.173Z,95576.25
2022-10-31T20:26:35.088Z,95581.69
2022-10-31T20:29:37.041Z,95579.38
2022-10-31T20:32:39.074Z,95585.97
2022-10-31T20:35:44.473Z,95586.34
2022-10-31T20:38:46.996Z,95579.41
2022-10-31T20:41:49.632Z,95581.75
2022-10-31T20:44:51.982Z,95579.81
2022-10-31T20:47:54.814Z,95583.34
2022-10-31T20:51:00.238Z,95581.06
2022-10-31T20:54:02.228Z,95590.69
2022-10-31T20:57:04.339Z,95587.25
2022-10-31T21:00:10.137Z,95581.81
2022-10-31T21:03:13.005Z,95583.28
2022-10-31T21:06:18.287Z,95583.75
2022-10-31T21:09:20.439Z,95581.75
2022-10-31T21:12:22.638Z,95580.22
2022-10-31T21:15:25.323Z,95576.31
2022-10-31T21:18:27.931Z,95580.63
2022-10-31T21:21:34.559Z,95581.75
2022-10-31T21:24:36.549Z,95583.72
2022-10-31T21:27:38.879Z,95581.38
2022-10-31T21:30:41.557Z,95581.75
2022-10-31T21:33:45.808Z,95581.03
2022-10-31T21:36:49.225Z,95580.63
2022-10-31T21:39:51.174Z,95577.53
2022-10-31T21:42:53.225Z,95579.09
2022-10-31T21:45:55.288Z,95579.13
2022-10-31T21:48:57.920Z,95574.09
2022-10-31T21:52:01.276Z,95570.63
2022-10-31T21:55:03.497Z,95572.56
2022-10-31T21:58:05.443Z,95569.50
2022-10-31T22:01:07.603Z,95574.94
2022-10-31T22:04:10.220Z,95573.03
2022-10-31T22:07:13.531Z,95573.78
2022-10-31T22:10:15.566Z,95577.31
2022-10-31T22:13:17.471Z,95568.78
2022-10-31T22:16:21.804Z,95568.78
2022-10-31T22:19:23.748Z,95571.91
2022-10-31T22:22:27.131Z,95564.53
2022-10-31T22:25:29.065Z,95575.44
2022-10-31T22:28:31.616Z,95572.31
2022-10-31T22:31:34.372Z,95575.09
2022-10-31T22:34:36.307Z,95564.56
2022-10-31T22:37:39.609Z,95565.34
2022-10-31T22:40:41.683Z,95565.00
2022-10-31T22:43:43.777Z,95562.31
2022-10-31T22:46:45.681Z,95563.47
2022-10-31T22:49:47.715Z,95560.78
2022-10-31T22:52:51.154Z,95558.09
2022-10-31T22:55:53.027Z,95561.16
2022-10-31T22:58:55.292Z,95561.53
2022-10-31T23:01:57.357Z,95563.50
2022-10-31T23:04:59.506Z,95565.03
2022-10-31T23:08:03.436Z,95566.59
2022-10-31T23:11:14.701Z,95563.91
2022-10-31T23:14:18.819Z,95560.81
2022-10-31T23:17:20.739Z,95569.75
2022-10-31T23:20:24.128Z,95574.41
2022-10-31T23:23:27.529Z,95574.41
2022-10-31T23:26:29.443Z,95567.06
2022-10-31T23:29:31.505Z,95568.25
2022-10-31T23:32:35.394Z,95576.00
2022-10-31T23:35:37.464Z,95570.19
2022-10-31T23:38:41.811Z,95568.63
2022-10-31T23:41:43.822Z,95571.34
2022-10-31T23:44:46.418Z,95572.13
2022-10-31T23:47:48.361Z,95569.00
2022-10-31T23:50:50.341Z,95565.22
2022-10-31T23:53:53.631Z,95573.69
2022-10-31T23:56:56.105Z,95561.72
2022-10-31T23:59:58.369Z,95564.03
